sensor_id;sensor_type;location;lat;lon;timestamp;pressure;altitude;pressure_sealevel;temperature;humidity
23433;BME280;41331;45.412;10.992;2022-07-06T00:02:06;100956.69;;;26.99;43.45
23433;BME280;41331;45.412;10.992;2022-07-06T00:04:33;100970.72;;;26.95;43.86
23433;BME280;41331;45.412;10.992;2022-07-06T00:07:01;100971.69;;;27.08;43.90
23433;BME280;41331;45.412;10.992;2022-07-06T00:09:28;100968.41;;;26.90;44.25
23433;BME280;41331;45.412;10.992;2022-07-06T00:11:55;100971.94;;;26.94;44.50
23433;BME280;41331;45.412;10.992;2022-07-06T00:14:23;100977.72;;;26.83;44.79
23433;BME280;41331;45.412;10.992;2022-07-06T00:16:50;100982.69;;;26.96;44.74
23433;BME280;41331;45.412;10.992;2022-07-06T00:19:18;100983.72;;;26.62;45.72
23433;BME280;41331;45.412;10.992;2022-07-06T00:21:45;100989.22;;;26.66;46.03
23433;BME280;41331;45.412;10.992;2022-07-06T00:24:15;100987.25;;;26.39;47.70
23433;BME280;41331;45.412;10.992;2022-07-06T00:26:45;100982.53;;;26.36;47.94
23433;BME280;41331;45.412;10.992;2022-07-06T00:29:12;100988.94;;;26.33;48.12
23433;BME280;41331;45.412;10.992;2022-07-06T00:31:40;100979.69;;;26.13;49.45
23433;BME280;41331;45.412;10.992;2022-07-06T00:34:07;100971.53;;;25.98;50.67
23433;BME280;41331;45.412;10.992;2022-07-06T00:36:34;100969.13;;;25.70;52.41
23433;BME280;41331;45.412;10.992;2022-07-06T00:39:03;100967.66;;;25.62;53.79
23433;BME280;41331;45.412;10.992;2022-07-06T00:41:30;100970.63;;;25.47;55.01
23433;BME280;41331;45.412;10.992;2022-07-06T00:44:07;100968.34;;;25.39;55.72
23433;BME280;41331;45.412;10.992;2022-07-06T00:46:34;100980.94;;;25.50;55.61
23433;BME280;41331;45.412;10.992;2022-07-06T00:49:02;100998.56;;;25.40;55.99
23433;BME280;41331;45.412;10.992;2022-07-06T00:51:34;101001.09;;;25.62;55.13
23433;BME280;41331;45.412;10.992;2022-07-06T00:54:04;101009.88;;;25.60;55.32
23433;BME280;41331;45.412;10.992;2022-07-06T00:56:34;101012.09;;;25.76;55.07
23433;BME280;41331;45.412;10.992;2022-07-06T00:59:02;101019.69;;;25.72;55.22
23433;BME280;41331;45.412;10.992;2022-07-06T01:01:31;101009.38;;;25.69;55.12
23433;BME280;41331;45.412;10.992;2022-07-06T01:03:58;101010.03;;;25.80;54.75
23433;BME280;41331;45.412;10.992;2022-07-06T01:06:25;101010.91;;;25.73;54.90
23433;BME280;41331;45.412;10.992;2022-07-06T01:08:53;101014.59;;;25.97;54.02
23433;BME280;41331;45.412;10.992;2022-07-06T01:11:21;101010.75;;;25.88;54.12
23433;BME280;41331;45.412;10.992;2022-07-06T01:13:50;100998.16;;;25.72;54.41
23433;BME280;41331;45.412;10.992;2022-07-06T01:16:18;100987.19;;;25.92;53.80
23433;BME280;41331;45.412;10.992;2022-07-06T01:18:46;100982.25;;;26.00;53.12
23433;BME280;41331;45.412;10.992;2022-07-06T01:21:14;100972.13;;;26.13;52.10
23433;BME280;41331;45.412;10.992;2022-07-06T01:23:44;100972.38;;;26.22;51.85
23433;BME280;41331;45.412;10.992;2022-07-06T01:26:17;100964.91;;;26.16;51.65
23433;BME280;41331;45.412;10.992;2022-07-06T01:28:49;100962.44;;;26.21;51.63
23433;BME280;41331;45.412;10.992;2022-07-06T01:31:22;100966.19;;;26.11;51.95
23433;BME280;41331;45.412;10.992;2022-07-06T01:33:52;100965.78;;;26.09;51.67
23433;BME280;41331;45.412;10.992;2022-07-06T01:36:20;100971.31;;;26.13;51.64
23433;BME280;41331;45.412;10.992;2022-07-06T01:38:55;100978.69;;;26.26;51.17
23433;BME280;41331;45.412;10.992;2022-07-06T01:41:25;100968.31;;;26.27;50.99
23433;BME280;41331;45.412;10.992;2022-07-06T01:43:53;100964.91;;;26.16;51.45
23433;BME280;41331;45.412;10.992;2022-07-06T01:46:20;100964.44;;;26.21;51.43
23433;BME280;41331;45.412;10.992;2022-07-06T01:48:48;100973.59;;;26.21;51.81
23433;BME280;41331;45.412;10.992;2022-07-06T01:51:16;100977.81;;;26.06;52.78
23433;BME280;41331;45.412;10.992;2022-07-06T01:53:47;100982.50;;;25.86;53.97
23433;BME280;41331;45.412;10.992;2022-07-06T01:56:18;100968.88;;;25.61;55.17
23433;BME280;41331;45.412;10.992;2022-07-06T01:58:49;100964.31;;;25.43;55.64
23433;BME280;41331;45.412;10.992;2022-07-06T02:01:19;100966.34;;;25.39;55.99
23433;BME280;41331;45.412;10.992;2022-07-06T02:03:47;100963.03;;;25.17;56.28
23433;BME280;41331;45.412;10.992;2022-07-06T02:06:15;100972.69;;;25.05;56.33
23433;BME280;41331;45.412;10.992;2022-07-06T02:08:49;100961.84;;;25.15;56.11
23433;BME280;41331;45.412;10.992;2022-07-06T02:11:19;100964.59;;;25.18;55.70
23433;BME280;41331;45.412;10.992;2022-07-06T02:13:47;100955.09;;;25.16;55.61
23433;BME280;41331;45.412;10.992;2022-07-06T02:16:15;100968.94;;;25.23;55.09
23433;BME280;41331;45.412;10.992;2022-07-06T02:18:44;100978.50;;;25.22;55.21
23433;BME280;41331;45.412;10.992;2022-07-06T02:21:11;100975.97;;;24.97;55.55
23433;BME280;41331;45.412;10.992;2022-07-06T02:23:39;100981.88;;;25.02;55.33
23433;BME280;41331;45.412;10.992;2022-07-06T02:26:07;100985.78;;;25.12;54.45
23433;BME280;41331;45.412;10.992;2022-07-06T02:28:35;101000.47;;;25.13;54.44
23433;BME280;41331;45.412;10.992;2022-07-06T02:31:04;100983.63;;;25.27;53.86
23433;BME280;41331;45.412;10.992;2022-07-06T02:33:32;101001.72;;;25.46;53.07
23433;BME280;41331;45.412;10.992;2022-07-06T02:35:59;100997.84;;;25.36;53.21
23433;BME280;41331;45.412;10.992;2022-07-06T02:38:27;100986.84;;;25.22;52.99
23433;BME280;41331;45.412;10.992;2022-07-06T02:40:57;101009.09;;;25.25;53.01
23433;BME280;41331;45.412;10.992;2022-07-06T02:43:28;100997.94;;;25.60;51.74
23433;BME280;41331;45.412;10.992;2022-07-06T02:45:56;101007.22;;;25.49;52.35
23433;BME280;41331;45.412;10.992;2022-07-06T02:48:23;101009.97;;;25.53;52.44
23433;BME280;41331;45.412;10.992;2022-07-06T02:50:52;101010.97;;;25.36;52.78
23433;BME280;41331;45.412;10.992;2022-07-06T02:53:20;101021.03;;;25.26;52.64
23433;BME280;41331;45.412;10.992;2022-07-06T02:55:51;101031.34;;;25.29;52.88
23433;BME280;41331;45.412;10.992;2022-07-06T02:58:19;101021.28;;;25.39;52.29
23433;BME280;41331;45.412;10.992;2022-07-06T03:00:47;101014.16;;;25.34;52.23
23433;BME280;41331;45.412;10.992;2022-07-06T03:03:16;101013.34;;;25.37;51.96
23433;BME280;41331;45.412;10.992;2022-07-06T03:05:43;101001.94;;;25.24;51.82
23433;BME280;41331;45.412;10.992;2022-07-06T03:08:15;101009.81;;;25.33;52.21
23433;BME280;41331;45.412;10.992;2022-07-06T03:10:43;101012.59;;;25.33;52.54
23433;BME280;41331;45.412;10.992;2022-07-06T03:13:11;101015.88;;;25.24;52.86
23433;BME280;41331;45.412;10.992;2022-07-06T03:15:38;101016.25;;;25.26;53.05
23433;BME280;41331;45.412;10.992;2022-07-06T03:18:05;101018.06;;;25.02;53.58
23433;BME280;41331;45.412;10.992;2022-07-06T03:20:33;101006.97;;;24.99;54.16
23433;BME280;41331;45.412;10.992;2022-07-06T03:23:01;101016.94;;;24.96;54.61
23433;BME280;41331;45.412;10.992;2022-07-06T03:25:29;101029.34;;;24.88;55.01
23433;BME280;41331;45.412;10.992;2022-07-06T03:27:56;101030.22;;;24.78;55.12
23433;BME280;41331;45.412;10.992;2022-07-06T03:30:24;101030.88;;;24.96;55.03
23433;BME280;41331;45.412;10.992;2022-07-06T03:32:54;101041.38;;;24.78;55.90
23433;BME280;41331;45.412;10.992;2022-07-06T03:35:23;101037.66;;;24.92;55.46
23433;BME280;41331;45.412;10.992;2022-07-06T03:37:52;101039.25;;;24.89;55.68
23433;BME280;41331;45.412;10.992;2022-07-06T03:40:22;101038.25;;;25.14;54.97
23433;BME280;41331;45.412;10.992;2022-07-06T03:42:52;101038.28;;;25.10;55.09
23433;BME280;41331;45.412;10.992;2022-07-06T03:45:20;101039.16;;;25.00;55.51
23433;BME280;41331;45.412;10.992;2022-07-06T03:47:48;101040.75;;;25.01;55.57
23433;BME280;41331;45.412;10.992;2022-07-06T03:50:15;101040.75;;;25.01;55.58
23433;BME280;41331;45.412;10.992;2022-07-06T03:52:43;101037.56;;;25.02;54.50
23433;BME280;41331;45.412;10.992;2022-07-06T03:55:11;101033.16;;;25.09;54.78
23433;BME280;41331;45.412;10.992;2022-07-06T03:57:46;101027.63;;;25.01;54.61
23433;BME280;41331;45.412;10.992;2022-07-06T04:00:16;101033.88;;;25.16;54.10
23433;BME280;41331;45.412;10.992;2022-07-06T04:02:51;101036.53;;;25.27;54.11
23433;BME280;41331;45.412;10.992;2022-07-06T04:05:22;101025.84;;;25.22;53.76
23433;BME280;41331;45.412;10.992;2022-07-06T04:07:52;101022.41;;;25.11;53.86
23433;BME280;41331;45.412;10.992;2022-07-06T04:10:24;101023.53;;;25.17;54.90
23433;BME280;41331;45.412;10.992;2022-07-06T04:12:53;101012.47;;;25.06;55.30
23433;BME280;41331;45.412;10.992;2022-07-06T04:15:21;101023.22;;;25.04;55.32
23433;BME280;41331;45.412;10.992;2022-07-06T04:17:48;101017.31;;;24.98;55.10
23433;BME280;41331;45.412;10.992;2022-07-06T04:20:30;101002.69;;;24.91;56.95
23433;BME280;41331;45.412;10.992;2022-07-06T04:22:58;101012.47;;;25.06;55.37
23433;BME280;41331;45.412;10.992;2022-07-06T04:25:27;101016.88;;;25.00;56.03
23433;BME280;41331;45.412;10.992;2022-07-06T04:27:58;101006.81;;;25.17;55.33
23433;BME280;41331;45.412;10.992;2022-07-06T04:30:27;101003.03;;;25.34;54.64
23433;BME280;41331;45.412;10.992;2022-07-06T04:32:55;100988.34;;;25.30;54.46
23433;BME280;41331;45.412;10.992;2022-07-06T04:35:25;100994.91;;;25.47;53.90
23433;BME280;41331;45.412;10.992;2022-07-06T04:37:54;101012.63;;;25.29;55.19
23433;BME280;41331;45.412;10.992;2022-07-06T04:40:22;101026.72;;;25.49;54.53
23433;BME280;41331;45.412;10.992;2022-07-06T04:42:53;101040.88;;;25.66;53.95
23433;BME280;41331;45.412;10.992;2022-07-06T04:45:21;101042.06;;;25.65;53.53
23433;BME280;41331;45.412;10.992;2022-07-06T04:47:49;101025.81;;;25.60;54.00
23433;BME280;41331;45.412;10.992;2022-07-06T04:50:18;101027.91;;;25.86;53.60
23433;BME280;41331;45.412;10.992;2022-07-06T04:52:47;101040.16;;;25.92;53.54
23433;BME280;41331;45.412;10.992;2022-07-06T04:55:22;101037.50;;;26.12;52.08
23433;BME280;41331;45.412;10.992;2022-07-06T04:57:50;101039.88;;;26.10;52.44
23433;BME280;41331;45.412;10.992;2022-07-06T05:00:20;101055.44;;;26.11;52.21
23433;BME280;41331;45.412;10.992;2022-07-06T05:02:49;101054.53;;;26.18;51.33
23433;BME280;41331;45.412;10.992;2022-07-06T05:05:18;101063.56;;;26.25;51.37
23433;BME280;41331;45.412;10.992;2022-07-06T05:07:47;101074.13;;;26.41;50.81
23433;BME280;41331;45.412;10.992;2022-07-06T05:10:14;101065.53;;;26.28;50.63
23433;BME280;41331;45.412;10.992;2022-07-06T05:12:49;101067.91;;;26.30;51.08
23433;BME280;41331;45.412;10.992;2022-07-06T05:15:16;101079.34;;;26.39;50.51
23433;BME280;41331;45.412;10.992;2022-07-06T05:17:44;101089.28;;;26.40;50.26
23433;BME280;41331;45.412;10.992;2022-07-06T05:20:12;101081.69;;;26.14;50.77
23433;BME280;41331;45.412;10.992;2022-07-06T05:22:43;101092.09;;;26.09;50.81
23433;BME280;41331;45.412;10.992;2022-07-06T05:25:15;101095.81;;;25.99;50.45
23433;BME280;41331;45.412;10.992;2022-07-06T05:27:43;101101.78;;;26.01;50.80
23433;BME280;41331;45.412;10.992;2022-07-06T05:30:12;101106.91;;;26.06;50.80
23433;BME280;41331;45.412;10.992;2022-07-06T05:32:40;101102.88;;;26.11;49.88
23433;BME280;41331;45.412;10.992;2022-07-06T05:35:10;101122.78;;;26.09;50.32
23433;BME280;41331;45.412;10.992;2022-07-06T05:38:00;101142.69;;;26.12;50.15
23433;BME280;41331;45.412;10.992;2022-07-06T05:40:27;101158.88;;;25.90;52.00
23433;BME280;41331;45.412;10.992;2022-07-06T05:42:55;101181.59;;;25.92;52.34
23433;BME280;41331;45.412;10.992;2022-07-06T05:45:22;101178.34;;;25.97;51.98
23433;BME280;41331;45.412;10.992;2022-07-06T05:47:52;101191.31;;;25.76;54.38
23433;BME280;41331;45.412;10.992;2022-07-06T05:50:39;101189.56;;;25.48;56.28
23433;BME280;41331;45.412;10.992;2022-07-06T05:53:07;101196.34;;;25.47;56.33
23433;BME280;41331;45.412;10.992;2022-07-06T05:55:45;101194.44;;;25.37;56.87
23433;BME280;41331;45.412;10.992;2022-07-06T05:58:14;101206.31;;;25.45;58.00
23433;BME280;41331;45.412;10.992;2022-07-06T06:00:43;101183.16;;;24.99;62.75
23433;BME280;41331;45.412;10.992;2022-07-06T06:03:15;101185.16;;;24.36;68.59
23433;BME280;41331;45.412;10.992;2022-07-06T06:05:43;101161.84;;;23.98;73.95
23433;BME280;41331;45.412;10.992;2022-07-06T06:08:17;101158.38;;;23.40;77.83
23433;BME280;41331;45.412;10.992;2022-07-06T06:10:45;101165.91;;;22.93;80.93
23433;BME280;41331;45.412;10.992;2022-07-06T06:13:16;101169.44;;;22.76;80.68
23433;BME280;41331;45.412;10.992;2022-07-06T06:15:44;101171.84;;;22.92;76.40
23433;BME280;41331;45.412;10.992;2022-07-06T06:18:11;101174.25;;;23.33;78.84
23433;BME280;41331;45.412;10.992;2022-07-06T06:20:39;101165.53;;;23.20;83.58
23433;BME280;41331;45.412;10.992;2022-07-06T06:23:07;101159.19;;;23.16;82.16
23433;BME280;41331;45.412;10.992;2022-07-06T06:25:36;101142.44;;;23.80;75.49
23433;BME280;41331;45.412;10.992;2022-07-06T06:28:06;101139.06;;;24.32;69.32
23433;BME280;41331;45.412;10.992;2022-07-06T06:30:35;101111.66;;;24.26;70.83
23433;BME280;41331;45.412;10.992;2022-07-06T06:33:19;101114.97;;;23.96;72.61
23433;BME280;41331;45.412;10.992;2022-07-06T06:35:48;101130.78;;;24.17;71.91
23433;BME280;41331;45.412;10.992;2022-07-06T06:38:18;101128.09;;;23.89;74.79
23433;BME280;41331;45.412;10.992;2022-07-06T06:40:46;101126.09;;;23.96;74.03
23433;BME280;41331;45.412;10.992;2022-07-06T06:43:13;101132.41;;;24.04;75.23
23433;BME280;41331;45.412;10.992;2022-07-06T06:46:01;101120.06;;;24.16;73.13
23433;BME280;41331;45.412;10.992;2022-07-06T06:48:29;101116.09;;;24.17;73.90
23433;BME280;41331;45.412;10.992;2022-07-06T06:50:59;101130.78;;;24.17;74.88
23433;BME280;41331;45.412;10.992;2022-07-06T06:53:26;101130.91;;;23.85;82.50
23433;BME280;41331;45.412;10.992;2022-07-06T06:55:53;101138.09;;;23.72;85.63
23433;BME280;41331;45.412;10.992;2022-07-06T06:58:21;101140.50;;;24.58;76.98
23433;BME280;41331;45.412;10.992;2022-07-06T07:00:49;101135.72;;;24.62;72.86
23433;BME280;41331;45.412;10.992;2022-07-06T07:03:17;101141.91;;;24.14;84.05
23433;BME280;41331;45.412;10.992;2022-07-06T07:05:45;101152.59;;;24.26;84.01
23433;BME280;41331;45.412;10.992;2022-07-06T07:08:12;101149.72;;;24.47;82.33
23433;BME280;41331;45.412;10.992;2022-07-06T07:10:40;101143.91;;;24.83;78.47
23433;BME280;41331;45.412;10.992;2022-07-06T07:13:07;101142.75;;;25.29;76.67
23433;BME280;41331;45.412;10.992;2022-07-06T07:15:35;101141.59;;;25.68;72.76
23433;BME280;41331;45.412;10.992;2022-07-06T07:18:02;101139.50;;;26.40;66.69
23433;BME280;41331;45.412;10.992;2022-07-06T07:20:30;101142.19;;;26.51;67.48
23433;BME280;41331;45.412;10.992;2022-07-06T07:22:59;101157.66;;;26.25;71.14
23433;BME280;41331;45.412;10.992;2022-07-06T07:25:29;101143.78;;;26.52;55.93
23433;BME280;41331;45.412;10.992;2022-07-06T07:27:56;101151.47;;;27.22;57.42
23433;BME280;41331;45.412;10.992;2022-07-06T07:30:24;101150.66;;;27.45;57.34
23433;BME280;41331;45.412;10.992;2022-07-06T07:32:51;101152.19;;;28.29;50.01
23433;BME280;41331;45.412;10.992;2022-07-06T07:35:18;101145.28;;;28.53;50.59
23433;BME280;41331;45.412;10.992;2022-07-06T07:37:46;101149.41;;;28.81;48.40
23433;BME280;41331;45.412;10.992;2022-07-06T07:40:13;101164.00;;;29.09;48.10
23433;BME280;41331;45.412;10.992;2022-07-06T07:42:41;101156.97;;;29.01;51.18
23433;BME280;41331;45.412;10.992;2022-07-06T07:45:09;101155.00;;;29.47;49.25
23433;BME280;41331;45.412;10.992;2022-07-06T07:47:36;101145.47;;;29.44;46.99
23433;BME280;41331;45.412;10.992;2022-07-06T07:50:05;101149.16;;;29.25;43.98
23433;BME280;41331;45.412;10.992;2022-07-06T07:52:35;101153.56;;;28.93;43.34
23433;BME280;41331;45.412;10.992;2022-07-06T07:55:03;101146.72;;;29.10;47.81
23433;BME280;41331;45.412;10.992;2022-07-06T07:57:50;101147.50;;;29.11;44.46
23433;BME280;41331;45.412;10.992;2022-07-06T08:00:18;101157.25;;;29.23;45.15
23433;BME280;41331;45.412;10.992;2022-07-06T08:02:53;101153.47;;;29.29;43.04
23433;BME280;41331;45.412;10.992;2022-07-06T08:05:22;101162.44;;;29.53;44.06
23433;BME280;41331;45.412;10.992;2022-07-06T08:07:49;101162.44;;;29.70;42.27
23433;BME280;41331;45.412;10.992;2022-07-06T08:10:16;101164.28;;;29.89;42.16
23433;BME280;41331;45.412;10.992;2022-07-06T08:12:44;101166.47;;;29.98;41.68
23433;BME280;41331;45.412;10.992;2022-07-06T08:15:12;101155.66;;;29.96;42.54
23433;BME280;41331;45.412;10.992;2022-07-06T08:17:40;101158.31;;;29.87;45.00
23433;BME280;41331;45.412;10.992;2022-07-06T08:20:08;101150.16;;;29.92;44.96
23433;BME280;41331;45.412;10.992;2022-07-06T08:22:36;101147.22;;;30.25;44.54
23433;BME280;41331;45.412;10.992;2022-07-06T08:25:04;101145.72;;;30.08;42.02
23433;BME280;41331;45.412;10.992;2022-07-06T08:27:32;101156.16;;;30.07;43.67
23433;BME280;41331;45.412;10.992;2022-07-06T08:30:01;101153.94;;;30.15;43.30
23433;BME280;41331;45.412;10.992;2022-07-06T08:32:28;101146.31;;;30.15;43.20
23433;BME280;41331;45.412;10.992;2022-07-06T08:35:16;101148.41;;;30.11;41.07
23433;BME280;41331;45.412;10.992;2022-07-06T08:37:43;101143.34;;;30.06;41.50
23433;BME280;41331;45.412;10.992;2022-07-06T08:40:11;101153.88;;;30.44;40.93
23433;BME280;41331;45.412;10.992;2022-07-06T08:42:38;101154.31;;;30.30;39.26
23433;BME280;41331;45.412;10.992;2022-07-06T08:45:07;101154.63;;;30.32;39.08
23433;BME280;41331;45.412;10.992;2022-07-06T08:47:37;101161.72;;;30.49;40.65
23433;BME280;41331;45.412;10.992;2022-07-06T08:50:05;101156.91;;;30.50;38.75
23433;BME280;41331;45.412;10.992;2022-07-06T08:52:33;101160.16;;;30.48;39.84
23433;BME280;41331;45.412;10.992;2022-07-06T08:55:02;101155.19;;;30.52;40.02
23433;BME280;41331;45.412;10.992;2022-07-06T08:57:30;101152.88;;;30.63;41.70
23433;BME280;41331;45.412;10.992;2022-07-06T08:59:58;101152.19;;;30.85;42.08
23433;BME280;41331;45.412;10.992;2022-07-06T09:02:26;101145.84;;;31.19;39.21
23433;BME280;41331;45.412;10.992;2022-07-06T09:04:55;101159.63;;;30.79;38.82
23433;BME280;41331;45.412;10.992;2022-07-06T09:07:26;101138.19;;;31.19;39.59
23433;BME280;41331;45.412;10.992;2022-07-06T09:10:18;101145.53;;;31.04;41.93
23433;BME280;41331;45.412;10.992;2022-07-06T09:12:46;101148.78;;;31.28;39.65
23433;BME280;41331;45.412;10.992;2022-07-06T09:15:13;101141.91;;;31.29;40.14
23433;BME280;41331;45.412;10.992;2022-07-06T09:17:42;101147.28;;;31.24;36.70
23433;BME280;41331;45.412;10.992;2022-07-06T09:20:11;101139.81;;;30.95;36.97
23433;BME280;41331;45.412;10.992;2022-07-06T09:22:41;101138.03;;;31.36;36.65
23433;BME280;41331;45.412;10.992;2022-07-06T09:25:14;101143.47;;;31.17;37.60
23433;BME280;41331;45.412;10.992;2022-07-06T09:27:46;101142.38;;;31.50;36.79
23433;BME280;41331;45.412;10.992;2022-07-06T09:30:17;101145.50;;;31.52;38.27
23433;BME280;41331;45.412;10.992;2022-07-06T09:32:47;101140.91;;;31.80;38.48
23433;BME280;41331;45.412;10.992;2022-07-06T09:35:30;101143.72;;;31.80;37.96
23433;BME280;41331;45.412;10.992;2022-07-06T09:38:11;101135.06;;;31.96;34.96
23433;BME280;41331;45.412;10.992;2022-07-06T09:40:40;101138.44;;;31.82;35.20
23433;BME280;41331;45.412;10.992;2022-07-06T09:43:20;101134.41;;;31.70;35.51
23433;BME280;41331;45.412;10.992;2022-07-06T09:45:53;101130.81;;;31.69;34.74
23433;BME280;41331;45.412;10.992;2022-07-06T09:48:24;101121.53;;;31.60;33.53
23433;BME280;41331;45.412;10.992;2022-07-06T09:51:00;101120.34;;;31.70;35.55
23433;BME280;41331;45.412;10.992;2022-07-06T09:53:30;101118.78;;;31.91;35.22
23433;BME280;41331;45.412;10.992;2022-07-06T09:55:58;101116.88;;;32.10;34.37
23433;BME280;41331;45.412;10.992;2022-07-06T09:58:25;101122.91;;;31.99;35.09
23433;BME280;41331;45.412;10.992;2022-07-06T10:01:25;101114.59;;;32.27;31.86
23433;BME280;41331;45.412;10.992;2022-07-06T10:03:53;101099.91;;;32.01;33.11
23433;BME280;41331;45.412;10.992;2022-07-06T10:06:20;101096.91;;;32.26;32.45
23433;BME280;41331;45.412;10.992;2022-07-06T10:08:48;101106.28;;;32.23;33.77
23433;BME280;41331;45.412;10.992;2022-07-06T10:11:15;101111.00;;;31.73;32.89
23433;BME280;41331;45.412;10.992;2022-07-06T10:13:44;101111.44;;;31.71;33.16
23433;BME280;41331;45.412;10.992;2022-07-06T10:16:14;101100.94;;;31.85;32.68
23433;BME280;41331;45.412;10.992;2022-07-06T10:18:42;101104.53;;;31.85;33.76
23433;BME280;41331;45.412;10.992;2022-07-06T10:21:11;101104.41;;;31.89;34.01
23433;BME280;41331;45.412;10.992;2022-07-06T10:23:39;101099.72;;;32.26;35.13
23433;BME280;41331;45.412;10.992;2022-07-06T10:26:08;101104.63;;;32.35;35.07
23433;BME280;41331;45.412;10.992;2022-07-06T10:28:41;101093.34;;;32.75;32.96
23433;BME280;41331;45.412;10.992;2022-07-06T10:31:09;101096.31;;;32.71;33.98
23433;BME280;41331;45.412;10.992;2022-07-06T10:33:37;101100.88;;;32.07;32.15
23433;BME280;41331;45.412;10.992;2022-07-06T10:36:07;101098.25;;;32.12;32.40
23433;BME280;41331;45.412;10.992;2022-07-06T10:38:37;101085.38;;;32.33;33.10
23433;BME280;41331;45.412;10.992;2022-07-06T10:41:06;101101.00;;;32.65;34.28
23433;BME280;41331;45.412;10.992;2022-07-06T10:43:41;101095.75;;;32.95;33.69
23433;BME280;41331;45.412;10.992;2022-07-06T10:46:13;101096.03;;;32.79;31.94
23433;BME280;41331;45.412;10.992;2022-07-06T10:48:44;101089.59;;;32.29;31.60
23433;BME280;41331;45.412;10.992;2022-07-06T10:51:25;101079.88;;;32.88;31.75
23433;BME280;41331;45.412;10.992;2022-07-06T10:53:56;101084.75;;;32.88;32.16
23433;BME280;41331;45.412;10.992;2022-07-06T10:59:16;101091.63;;;32.87;33.45
23433;BME280;41331;45.412;10.992;2022-07-06T11:02:13;101081.38;;;33.20;33.53
23433;BME280;41331;45.412;10.992;2022-07-06T11:04:43;101082.00;;;33.15;32.84
23433;BME280;41331;45.412;10.992;2022-07-06T11:07:16;101082.28;;;33.17;33.77
23433;BME280;41331;45.412;10.992;2022-07-06T11:09:54;101079.78;;;33.38;32.60
23433;BME280;41331;45.412;10.992;2022-07-06T11:12:24;101084.19;;;33.57;30.74
23433;BME280;41331;45.412;10.992;2022-07-06T11:14:52;101083.53;;;33.71;31.54
23433;BME280;41331;45.412;10.992;2022-07-06T11:17:21;101085.94;;;33.55;30.67
23433;BME280;41331;45.412;10.992;2022-07-06T11:20:09;101089.50;;;33.18;33.29
23433;BME280;41331;45.412;10.992;2022-07-06T11:22:38;101087.50;;;33.46;32.14
23433;BME280;41331;45.412;10.992;2022-07-06T11:25:06;101078.81;;;33.68;32.44
23433;BME280;41331;45.412;10.992;2022-07-06T11:27:36;101078.00;;;33.86;31.70
23433;BME280;41331;45.412;10.992;2022-07-06T11:30:05;101079.78;;;33.65;31.65
23433;BME280;41331;45.412;10.992;2022-07-06T11:32:35;101081.97;;;33.80;32.13
23433;BME280;41331;45.412;10.992;2022-07-06T11:35:02;101075.31;;;33.92;32.05
23433;BME280;41331;45.412;10.992;2022-07-06T11:37:30;101078.53;;;33.66;31.66
23433;BME280;41331;45.412;10.992;2022-07-06T11:40:06;101062.78;;;33.84;31.24
23433;BME280;41331;45.412;10.992;2022-07-06T11:42:33;101064.31;;;34.03;30.72
23433;BME280;41331;45.412;10.992;2022-07-06T11:45:03;101059.28;;;34.07;30.20
23433;BME280;41331;45.412;10.992;2022-07-06T11:47:31;101061.28;;;33.64;30.21
23433;BME280;41331;45.412;10.992;2022-07-06T11:49:58;101051.69;;;33.80;31.18
23433;BME280;41331;45.412;10.992;2022-07-06T11:52:25;101041.69;;;33.70;31.37
23433;BME280;41331;45.412;10.992;2022-07-06T11:54:59;101039.44;;;33.83;31.79
23433;BME280;41331;45.412;10.992;2022-07-06T11:57:32;101037.22;;;33.87;29.76
23433;BME280;41331;45.412;10.992;2022-07-06T11:59:59;101023.22;;;33.50;29.95
23433;BME280;41331;45.412;10.992;2022-07-06T12:02:27;101022.03;;;33.94;29.10
23433;BME280;41331;45.412;10.992;2022-07-06T12:04:54;101006.47;;;33.98;30.19
23433;BME280;41331;45.412;10.992;2022-07-06T12:07:22;101021.00;;;33.64;28.71
23433;BME280;41331;45.412;10.992;2022-07-06T12:09:49;101017.69;;;33.65;29.42
23433;BME280;41331;45.412;10.992;2022-07-06T12:12:16;101013.97;;;33.59;29.29
23433;BME280;41331;45.412;10.992;2022-07-06T12:14:44;101012.94;;;33.81;29.22
23433;BME280;41331;45.412;10.992;2022-07-06T12:17:14;101009.47;;;33.86;28.79
23433;BME280;41331;45.412;10.992;2022-07-06T12:19:42;101005.22;;;33.99;29.18
23433;BME280;41331;45.412;10.992;2022-07-06T12:22:10;101002.56;;;33.08;29.41
23433;BME280;41331;45.412;10.992;2022-07-06T12:24:42;100995.94;;;33.57;29.75
23433;BME280;41331;45.412;10.992;2022-07-06T12:27:13;100998.38;;;33.73;28.85
23433;BME280;41331;45.412;10.992;2022-07-06T12:29:41;100990.00;;;33.88;27.56
23433;BME280;41331;45.412;10.992;2022-07-06T12:32:19;100978.56;;;33.31;28.61
23433;BME280;41331;45.412;10.992;2022-07-06T12:35:09;100969.13;;;33.52;28.91
23433;BME280;41331;45.412;10.992;2022-07-06T12:37:37;100967.53;;;34.03;27.92
23433;BME280;41331;45.412;10.992;2022-07-06T12:40:14;100964.06;;;33.74;27.98
23433;BME280;41331;45.412;10.992;2022-07-06T12:42:47;100956.28;;;33.51;29.98
23433;BME280;41331;45.412;10.992;2022-07-06T12:45:15;100959.06;;;34.03;28.54
23433;BME280;41331;45.412;10.992;2022-07-06T12:48:05;100955.53;;;34.17;29.23
23433;BME280;41331;45.412;10.992;2022-07-06T12:50:38;100951.88;;;33.92;29.75
23433;BME280;41331;45.412;10.992;2022-07-06T12:53:23;100948.50;;;34.12;30.33
23433;BME280;41331;45.412;10.992;2022-07-06T12:56:11;100952.56;;;33.78;30.19
23433;BME280;41331;45.412;10.992;2022-07-06T12:58:55;100953.88;;;34.10;30.39